Vandenberg Village, California
Current Conditions -  °F | °C
As of 10:55 AM on Friday 31 Oct 2014 (Local Time) from KLPC Reporting Station
Overcast Overcast  
Wind Chill: 66°   Ceiling: 4000
Heat Index: 66°   Visibility: 10mi
Dew Point: 52°   Wind: 3mph
Humidity: 60%   Direction: 250°WSW
Pressure: 29.95"   Gusts: NA
Location:  34.608°N, 120.364°W
Report Text: KLPC 311755Z AUTO 25003KT 10SM BKN040 OVC047 19/11 A2995 RMK AO1 10190 20140 54000
Loading
Personal Weather Stations






























Interactive Weather Map
Tropical Storm Tracking
New forecast layout! Learn more

10-Day Weather Forecast

Advertisements
Track Severe Weather on mobile